Time;durP1;ratioP1;P1;durP2;ratioP2;P2;SDS_P1;SDS_P2;PMS_P1;PMS_P2;Temp;Humidity;BMP_temperature;BMP_pressure;BME280_temperature;BME280_humidity;BME280_pressure;Samples;Min_cycle;Max_cycle;Signal;HPM_P1;HPM_P2
2022/03/18 00:01:31;;;;;;;9.00;6.10;;;;;;;-0.99;36.96;99352.37;110383;1244;59719;-66
2022/03/18 00:04:02;;;;;;;;;;;;;;;-1.01;37.00;99352.37;110134;1245;59667;-66
2022/03/18 00:06:34;;;;;;;10.40;6.30;;;;;;;-1.04;37.14;99350.98;110364;1244;70799;-65
2022/03/18 00:09:03;;;;;;;;;;;;;;;-1.07;37.07;99351.83;110368;1244;67827;-63
2022/03/18 00:11:33;;;;;;;9.50;5.90;;;;;;;-1.10;37.17;99350.28;110061;1247;68605;-66
2022/03/18 00:14:03;;;;;;;9.10;6.60;;;;;;;-1.13;37.31;99356.25;110154;1246;59714;-66
2022/03/18 00:16:32;;;;;;;7.60;5.90;;;;;;;-1.15;37.51;99357.95;110035;1247;59649;-64
2022/03/18 00:19:02;;;;;;;12.40;6.10;;;;;;;-1.18;37.52;99357.59;110260;1244;71551;-65
2022/03/18 00:21:34;;;;;;;7.50;5.50;;;;;;;-1.21;37.61;99357.23;110286;1244;68628;-65
2022/03/18 00:24:04;;;;;;;8.30;5.60;;;;;;;-1.24;37.67;99355.66;110343;1244;69491;-64
2022/03/18 00:26:34;;;;;;;8.50;6.10;;;;;;;-1.27;37.87;99352.23;110174;1244;59649;-65
2022/03/18 00:29:04;;;;;;;9.70;5.80;;;;;;;-1.30;37.91;99357.53;110129;1244;59689;-66
2022/03/18 00:31:35;;;;;;;;;;;;;;;-1.35;37.92;99358.18;110147;1245;71514;-64
2022/03/18 00:34:05;;;;;;;9.60;5.70;;;;;;;-1.39;37.89;99361.07;110399;1244;67888;-65
2022/03/18 00:36:35;;;;;;;8.60;6.20;;;;;;;-1.42;37.91;99361.56;110130;1244;69260;-63
2022/03/18 00:39:06;;;;;;;7.70;5.90;;;;;;;-1.47;37.93;99368.20;110410;1244;60154;-62
2022/03/18 00:41:35;;;;;;;8.50;6.10;;;;;;;-1.50;37.99;99372.63;110099;1246;59735;-65
2022/03/18 00:44:06;;;;;;;7.40;5.20;;;;;;;-1.54;38.21;99377.73;110162;1245;71581;-65
2022/03/18 00:46:35;;;;;;;8.60;5.30;;;;;;;-1.59;38.44;99375.64;110268;1244;68558;-65
2022/03/18 00:52:06;;;;;;;7.20;5.00;;;;;;;-1.67;38.43;99383.45;110109;1247;59758;-64
2022/03/18 00:54:42;;;;;;;8.50;5.60;;;;;;;-1.71;38.62;99383.40;110228;1244;59690;-64
2022/03/18 00:57:13;;;;;;;8.80;6.00;;;;;;;-1.77;38.68;99385.60;110348;1244;71504;-64
2022/03/18 00:59:42;;;;;;;10.30;6.10;;;;;;;-1.80;38.91;99387.27;110153;1244;68512;-64
2022/03/18 01:02:12;;;;;;;7.70;5.50;;;;;;;-1.83;38.99;99387.60;110350;1244;69055;-65
2022/03/18 01:04:42;;;;;;;8.20;6.20;;;;;;;-1.87;39.03;99392.34;110198;1247;59690;-64
2022/03/18 01:07:12;;;;;;;8.30;5.00;;;;;;;-1.91;39.14;99389.57;110108;1246;59758;-64
2022/03/18 01:09:43;;;;;;;8.40;6.00;;;;;;;-1.94;39.15;99389.21;110145;1245;70957;-64
2022/03/18 01:12:12;;;;;;;8.40;5.80;;;;;;;-2.00;39.37;99392.73;110295;1244;68427;-66
2022/03/18 01:14:43;;;;;;;10.50;5.80;;;;;;;-2.04;39.19;99388.60;110098;1244;68524;-64
2022/03/18 01:17:13;;;;;;;;;;;;;;;-2.10;39.48;99383.41;110407;1244;59770;-64
2022/03/18 01:19:44;;;;;;;7.90;5.20;;;;;;;-2.17;39.54;99386.61;110167;1247;59688;-64
2022/03/18 01:22:16;;;;;;;8.30;5.00;;;;;;;-2.21;39.46;99391.52;110271;1244;70503;-64
2022/03/18 01:24:46;;;;;;;7.00;5.10;;;;;;;-2.28;39.70;99392.98;110378;1244;68401;-65
2022/03/18 01:27:17;;;;;;;8.40;4.90;;;;;;;-2.35;40.12;99393.09;110123;1246;69632;-66
2022/03/18 01:29:48;;;;;;;8.90;5.30;;;;;;;-2.40;39.92;99394.40;110177;1246;59734;-66
2022/03/18 01:32:19;;;;;;;6.20;5.20;;;;;;;-2.46;40.28;99397.58;110251;1244;59691;-66
2022/03/18 01:34:49;;;;;;;8.80;6.10;;;;;;;-2.52;40.61;99391.36;110262;1244;71584;-65
2022/03/18 01:37:20;;;;;;;7.50;5.50;;;;;;;-2.57;40.60;99395.59;110097;1244;68520;-65
2022/03/18 01:39:50;;;;;;;6.50;4.50;;;;;;;-2.63;40.74;99391.92;110129;1244;69442;-65
2022/03/18 01:42:20;;;;;;;7.50;5.00;;;;;;;-2.70;40.97;99388.61;110416;1244;59762;-66
2022/03/18 01:44:50;;;;;;;6.00;5.20;;;;;;;-2.75;41.05;99387.68;110187;1247;59733;-64
2022/03/18 01:47:20;;;;;;;8.90;6.30;;;;;;;-2.82;40.86;99389.66;110158;1247;70650;-65
2022/03/18 01:49:50;;;;;;;9.60;5.60;;;;;;;-2.88;41.17;99393.51;110490;1243;67625;-63
2022/03/18 01:52:20;;;;;;;7.50;5.10;;;;;;;-2.96;41.69;99395.10;110043;1247;69388;-64
2022/03/18 01:54:49;;;;;;;9.20;6.20;;;;;;;-3.03;41.91;99396.90;109902;1247;59709;-65
2022/03/18 01:57:21;;;;;;;7.50;5.70;;;;;;;-3.11;42.01;99399.02;110281;1244;59694;-65
2022/03/18 01:59:52;;;;;;;11.60;6.60;;;;;;;-3.18;42.46;99398.90;110446;1245;71622;-64
2022/03/18 02:02:21;;;;;;;;;;;;;;;-3.25;42.33;99402.23;110199;1244;68251;-65
2022/03/18 02:04:52;;;;;;;9.90;5.70;;;;;;;-3.34;42.62;99403.64;110180;1244;69211;-65
2022/03/18 02:07:22;;;;;;;;;;;;;;;-3.42;43.12;99405.04;110189;1246;59752;-63
2022/03/18 02:09:52;;;;;;;6.80;4.20;;;;;;;-3.52;43.33;99408.82;110201;1244;59675;-62
2022/03/18 02:12:23;;;;;;;8.20;5.50;;;;;;;-3.62;42.98;99408.31;110341;1244;69840;-64
2022/03/18 02:14:54;;;;;;;8.30;5.00;;;;;;;-3.71;42.58;99411.42;109909;1247;67860;-63
2022/03/18 02:17:25;;;;;;;7.70;5.90;;;;;;;-3.79;44.03;99411.46;110142;1244;69244;-65
2022/03/18 02:19:55;;;;;;;9.10;5.10;;;;;;;-3.87;44.10;99412.52;110424;1244;59750;-64
2022/03/18 02:22:26;;;;;;;10.10;5.60;;;;;;;-3.97;43.90;99413.37;110541;1244;59607;-66
2022/03/18 02:24:56;;;;;;;7.20;5.80;;;;;;;-4.07;45.80;99413.39;110101;1244;70049;-65
2022/03/18 02:27:26;;;;;;;8.10;4.90;;;;;;;-4.17;45.18;99412.00;110422;1244;68485;-66
2022/03/18 02:29:56;;;;;;;7.60;5.30;;;;;;;-4.25;46.31;99415.26;110229;1244;68606;-66
2022/03/18 02:32:27;;;;;;;8.30;5.60;;;;;;;-4.34;46.42;99417.48;110159;1245;59719;-63
2022/03/18 02:34:58;;;;;;;7.40;4.60;;;;;;;-4.42;46.83;99423.80;110212;1246;59636;-64
2022/03/18 02:37:28;;;;;;;6.50;5.30;;;;;;;-4.48;46.28;99423.35;109886;1247;70666;-63
2022/03/18 02:39:59;;;;;;;8.00;5.70;;;;;;;-4.54;45.93;99425.27;110049;1245;68831;-63
2022/03/18 02:42:29;;;;;;;6.70;4.20;;;;;;;-4.57;45.38;99428.61;110242;1244;69386;-63
2022/03/18 02:45:00;;;;;;;7.40;4.70;;;;;;;-4.62;46.29;99432.77;110151;1246;59725;-61
2022/03/18 02:47:29;;;;;;;12.10;7.00;;;;;;;-4.68;46.79;99433.18;110147;1246;59685;-61
2022/03/18 02:49:59;;;;;;;6.30;4.70;;;;;;;-4.72;45.77;99435.12;110317;1244;71384;-63
2022/03/18 02:52:30;;;;;;;9.60;6.90;;;;;;;-4.78;46.98;99432.45;110425;1244;68596;-61
2022/03/18 02:55:00;;;;;;;8.50;5.10;;;;;;;-4.83;48.04;99438.46;109712;1247;719271;-64
2022/03/18 02:57:32;;;;;;;8.20;5.10;;;;;;;-4.91;47.77;99439.66;110055;1247;59704;-65
2022/03/18 03:00:02;;;;;;;11.50;6.50;;;;;;;-5.00;47.15;99438.63;110315;1244;59674;-64
2022/03/18 03:02:34;;;;;;;10.80;5.70;;;;;;;-5.07;46.74;99441.85;109910;1247;70672;-61
2022/03/18 03:08:01;;;;;;;9.80;6.20;;;;;;;-5.20;47.59;99451.45;110150;1244;68558;-66
2022/03/18 03:10:34;;;;;;;9.10;5.90;;;;;;;-5.28;48.00;99452.96;110091;1244;59748;-64
2022/03/18 03:13:10;;;;;;;9.10;5.30;;;;;;;-5.34;47.48;99460.64;109930;1247;59742;-64
2022/03/18 03:15:40;;;;;;;5.90;4.30;;;;;;;-5.43;47.38;99459.92;110229;1243;71525;-64
2022/03/18 03:18:10;;;;;;;6.70;4.70;;;;;;;-5.52;47.36;99457.48;110282;1244;67664;-63
2022/03/18 03:20:40;;;;;;;5.40;3.40;;;;;;;-5.61;47.30;99458.15;110422;1244;68453;-63
2022/03/18 03:23:10;;;;;;;;;;;;;;;-5.69;47.60;99461.35;110348;1244;59665;-62
2022/03/18 03:25:40;;;;;;;5.20;4.20;;;;;;;-5.75;47.67;99465.42;110328;1244;59645;-61
2022/03/18 03:28:09;;;;;;;4.10;3.70;;;;;;;-5.82;47.93;99470.34;110135;1247;71528;-64
2022/03/18 03:30:40;;;;;;;3.70;2.90;;;;;;;-5.88;47.42;99473.60;110324;1244;67852;-65
2022/03/18 03:33:10;;;;;;;10.00;7.50;;;;;;;-5.93;48.05;99476.55;110223;1245;68932;-63
2022/03/18 03:35:41;;;;;;;5.00;4.30;;;;;;;-5.98;48.09;99474.58;110334;1244;59731;-66
2022/03/18 03:38:15;;;;;;;5.60;4.80;;;;;;;-6.01;49.68;99471.77;109890;1244;59710;-63
2022/03/18 03:40:47;;;;;;;7.90;4.40;;;;;;;-6.04;48.57;99478.48;110109;1247;71052;-63
2022/03/18 03:43:17;;;;;;;6.00;4.70;;;;;;;-6.08;49.30;99478.70;110170;1244;68404;-63
2022/03/18 03:45:47;;;;;;;;;;;;;;;-6.11;50.73;99483.05;110184;1244;68611;-64
2022/03/18 03:48:16;;;;;;;9.50;6.10;;;;;;;-6.14;50.03;99484.15;110087;1247;59761;-63
2022/03/18 03:50:46;;;;;;;6.50;5.00;;;;;;;-6.20;49.46;99485.19;110176;1247;59660;-67
2022/03/18 03:53:16;;;;;;;8.90;5.60;;;;;;;-6.23;53.73;99488.17;110140;1247;71365;-64
2022/03/18 03:55:46;;;;;;;9.80;6.20;;;;;;;-6.26;52.36;99489.94;110443;1244;67669;-65
2022/03/18 03:58:15;;;;;;;8.30;6.20;;;;;;;-6.29;52.20;99491.91;110109;1246;68453;-67
2022/03/18 04:00:45;;;;;;;6.10;5.10;;;;;;;-6.33;48.76;99489.25;110032;1247;59713;-61
2022/03/18 04:03:15;;;;;;;6.60;4.30;;;;;;;-6.37;49.37;99489.83;110186;1247;59679;-65
2022/03/18 04:05:45;;;;;;;8.30;5.70;;;;;;;-6.42;49.35;99494.61;110008;1247;69957;-64
2022/03/18 04:08:15;;;;;;;;;;;;;;;-6.42;49.50;99498.84;110220;1245;68429;-64
2022/03/18 04:10:45;;;;;;;8.80;6.60;;;;;;;-6.44;48.74;99499.29;110111;1247;69381;-63
2022/03/18 04:13:15;;;;;;;11.10;5.90;;;;;;;-6.46;49.06;99495.84;110126;1247;59723;-64
2022/03/18 04:15:45;;;;;;;9.30;5.20;;;;;;;-6.48;48.93;99496.30;109999;1244;59747;-64
2022/03/18 04:18:15;;;;;;;;;;;;;;;-6.51;49.42;99505.39;110193;1247;70969;-60
2022/03/18 04:20:45;;;;;;;8.30;5.00;;;;;;;-6.53;49.62;99510.21;110285;1244;68602;-61
2022/03/18 04:23:15;;;;;;;7.60;5.40;;;;;;;-6.57;49.68;99511.97;110155;1247;69468;-64
2022/03/18 04:25:45;;;;;;;9.00;6.00;;;;;;;-6.58;49.91;99514.31;110160;1247;59684;-61
2022/03/18 04:28:15;;;;;;;10.40;6.30;;;;;;;-6.61;50.43;99514.06;110109;1247;59730;-66
2022/03/18 04:30:44;;;;;;;10.50;5.80;;;;;;;-6.65;50.84;99519.73;110048;1244;71343;-68
2022/03/18 04:33:14;;;;;;;8.40;5.70;;;;;;;-6.70;51.30;99522.82;110179;1246;67774;-64
2022/03/18 04:35:44;;;;;;;8.00;6.00;;;;;;;-6.74;52.58;99527.27;110390;1244;68459;-64
2022/03/18 04:38:14;;;;;;;8.80;6.60;;;;;;;-6.77;53.78;99534.65;110259;1244;59678;-64
2022/03/18 04:40:44;;;;;;;10.70;6.90;;;;;;;-6.80;52.20;99537.59;110045;1248;59721;-62
2022/03/18 04:43:13;;;;;;;8.80;5.90;;;;;;;-6.81;52.10;99538.92;110239;1244;71061;-65
2022/03/18 04:45:44;;;;;;;10.40;7.30;;;;;;;-6.81;51.97;99540.27;110250;1244;68713;-65
2022/03/18 04:48:13;;;;;;;7.30;5.00;;;;;;;-6.81;51.73;99542.99;110287;1244;68690;-64
2022/03/18 04:50:42;;;;;;;7.30;4.70;;;;;;;-6.81;51.79;99541.63;110103;1245;59756;-62
2022/03/18 04:53:12;;;;;;;8.50;6.30;;;;;;;-6.80;52.52;99546.26;110341;1244;59754;-60
2022/03/18 04:55:42;;;;;;;10.70;6.30;;;;;;;-6.78;52.41;99551.22;110150;1244;71262;-62
2022/03/18 04:58:11;;;;;;;8.80;6.30;;;;;;;-6.75;54.54;99552.67;110244;1244;68658;-63
2022/03/18 05:00:41;;;;;;;7.50;4.70;;;;;;;-6.68;55.08;99549.48;110085;1247;69267;-61
2022/03/18 05:03:11;;;;;;;7.10;5.30;;;;;;;-6.58;54.31;99548.77;109839;1247;59678;-63
2022/03/18 05:05:40;;;;;;;7.50;4.80;;;;;;;-6.40;55.28;99549.46;110046;1247;59633;-64
2022/03/18 05:08:10;;;;;;;5.10;4.40;;;;;;;-6.24;54.76;99550.76;110353;1243;71521;-63
2022/03/18 05:10:39;;;;;;;6.30;4.80;;;;;;;-6.05;54.38;99552.66;110335;1244;68668;-67
2022/03/18 05:13:08;;;;;;;6.50;4.50;;;;;;;-5.82;53.91;99558.83;110117;1247;69521;-66
2022/03/18 05:15:38;;;;;;;4.20;2.90;;;;;;;-5.57;53.46;99562.38;110197;1246;59655;-61
2022/03/18 05:18:07;;;;;;;6.50;4.30;;;;;;;-5.30;53.05;99564.43;110115;1245;59598;-61
2022/03/18 05:20:37;;;;;;;6.80;3.40;;;;;;;-4.95;52.98;99566.97;110125;1247;71759;-61
2022/03/18 05:23:06;;;;;;;8.90;6.70;;;;;;;-4.57;52.24;99572.77;110287;1244;67832;-63
2022/03/18 05:25:36;;;;;;;9.70;5.50;;;;;;;-4.26;51.30;99569.67;110070;1247;68484;-64
2022/03/18 05:28:06;;;;;;;8.50;6.10;;;;;;;-4.03;50.05;99567.42;110217;1245;59733;-64
2022/03/18 05:30:37;;;;;;;;;;;;;;;-3.86;49.47;99573.05;110370;1244;59667;-66
2022/03/18 05:33:07;;;;;;;8.40;4.50;;;;;;;-3.65;49.63;99579.41;110165;1245;71717;-63
2022/03/18 05:35:37;;;;;;;9.50;6.60;;;;;;;-3.39;48.61;99576.45;110314;1243;66812;-64
2022/03/18 05:38:06;;;;;;;12.90;8.20;;;;;;;-3.16;48.19;99578.89;110292;1244;68371;-66
2022/03/18 05:40:36;;;;;;;18.90;11.30;;;;;;;-2.88;47.65;99581.55;110330;1243;59689;-62
2022/03/18 05:43:06;;;;;;;15.70;10.40;;;;;;;-2.62;47.39;99581.10;110187;1244;59755;-64
2022/03/18 05:45:36;;;;;;;25.50;14.90;;;;;;;-2.33;46.81;99583.88;109971;1246;71566;-63
2022/03/18 05:48:07;;;;;;;30.40;18.00;;;;;;;-2.07;45.78;99582.68;110077;1247;67768;-64
2022/03/18 05:50:36;;;;;;;23.00;13.60;;;;;;;-1.87;45.69;99580.19;110298;1244;68613;-63
2022/03/18 05:53:06;;;;;;;33.70;20.00;;;;;;;-1.64;44.96;99580.43;110162;1247;59740;-61
2022/03/18 05:58:23;;;;;;;28.50;16.40;;;;;;;-0.97;45.35;99584.66;110221;1245;71642;-62
2022/03/18 06:00:53;;;;;;;17.60;11.20;;;;;;;-0.71;43.51;99584.18;110354;1244;68659;-62
2022/03/18 06:03:24;;;;;;;50.60;31.30;;;;;;;-0.57;43.19;99578.28;110241;1244;69439;-65
2022/03/18 06:05:54;;;;;;;49.90;29.40;;;;;;;-0.46;43.13;99576.27;110113;1247;59673;-64
2022/03/18 06:13:59;;;;;;;29.00;18.60;;;;;;;0.01;41.34;99575.14;110161;1247;68564;-65
2022/03/18 06:16:28;;;;;;;15.50;10.30;;;;;;;0.33;39.44;99578.52;110039;1246;69461;-66
2022/03/18 06:18:58;;;;;;;13.20;9.50;;;;;;;0.47;39.03;99579.74;110198;1244;59701;-67
2022/03/18 06:21:28;;;;;;;12.00;7.10;;;;;;;0.75;38.95;99577.90;109987;1247;59611;-67
2022/03/18 06:23:58;;;;;;;14.70;8.80;;;;;;;1.24;36.49;99578.09;110187;1244;70664;-63
2022/03/18 06:26:30;;;;;;;;;;;;;;;1.40;35.19;99587.70;110153;1244;68601;-64
2022/03/18 06:29:00;;;;;;;14.00;9.40;;;;;;;1.53;35.64;99590.77;110064;1248;69492;-65
2022/03/18 06:31:31;;;;;;;15.90;10.70;;;;;;;1.94;36.70;99589.63;110313;1244;59755;-67
2022/03/18 06:34:01;;;;;;;15.40;8.90;;;;;;;2.09;34.25;99589.75;110087;1244;59822;-64
2022/03/18 06:36:31;;;;;;;11.70;8.90;;;;;;;2.23;35.46;99593.98;110135;1244;71509;-67
2022/03/18 06:39:00;;;;;;;11.60;8.60;;;;;;;2.33;34.38;99602.54;110236;1244;67879;-64
2022/03/18 06:41:31;;;;;;;12.90;8.60;;;;;;;2.56;34.02;99607.07;110079;1247;68485;-63
2022/03/18 06:44:00;;;;;;;11.70;8.20;;;;;;;2.84;34.70;99608.27;110351;1244;59762;-67
2022/03/18 06:46:30;;;;;;;11.30;7.60;;;;;;;3.03;33.31;99611.07;110358;1244;59664;-63
2022/03/18 06:48:59;;;;;;;15.00;8.70;;;;;;;3.11;32.65;99614.80;110353;1244;70850;-63
2022/03/18 06:51:28;;;;;;;11.60;7.50;;;;;;;3.05;32.02;99616.73;110117;1247;67936;-63
2022/03/18 06:53:59;;;;;;;14.20;7.00;;;;;;;3.06;31.90;99622.41;110120;1245;68720;-62
2022/03/18 06:56:30;;;;;;;11.80;7.30;;;;;;;3.15;31.15;99617.18;110104;1245;59690;-64
2022/03/18 06:59:00;;;;;;;25.00;10.90;;;;;;;3.26;31.34;99617.78;110426;1244;59753;-64
2022/03/18 07:01:29;;;;;;;10.00;6.60;;;;;;;3.51;31.35;99616.35;110088;1244;71700;-64
2022/03/18 07:03:59;;;;;;;9.20;6.80;;;;;;;3.86;30.24;99616.19;110315;1244;68622;-64
2022/03/18 07:06:29;;;;;;;10.90;7.00;;;;;;;3.98;30.36;99613.13;110039;1244;69290;-64
2022/03/18 07:08:58;;;;;;;11.00;6.30;;;;;;;4.22;31.20;99618.02;110349;1244;59721;-64
2022/03/18 07:11:27;;;;;;;9.90;6.80;;;;;;;4.53;30.32;99619.35;110101;1247;59631;-64
2022/03/18 07:13:57;;;;;;;8.50;6.40;;;;;;;4.42;28.25;99618.46;110272;1244;70929;-64
2022/03/18 07:19:15;;;;;;;9.00;7.00;;;;;;;4.94;28.83;99618.61;110156;1244;70105;-64
2022/03/18 07:21:46;;;;;;;9.40;6.60;;;;;;;4.73;27.64;99619.60;110389;1244;59729;-63
2022/03/18 07:24:16;;;;;;;7.40;5.30;;;;;;;5.00;29.62;99619.54;110376;1244;59745;-62
2022/03/18 07:26:46;;;;;;;9.40;6.70;;;;;;;5.20;28.60;99622.36;110424;1244;70764;-62
2022/03/18 07:29:15;;;;;;;9.80;6.90;;;;;;;5.44;28.96;99620.23;110101;1247;68706;-66
2022/03/18 07:31:44;;;;;;;6.60;5.10;;;;;;;5.65;28.57;99619.87;110086;1247;69434;-65
2022/03/18 07:34:14;;;;;;;10.60;7.80;;;;;;;5.72;27.47;99624.23;110094;1247;59736;-64
2022/03/18 07:36:43;;;;;;;7.60;6.60;;;;;;;5.86;27.92;99623.30;110134;1244;59681;-64
2022/03/18 07:39:13;;;;;;;9.10;6.90;;;;;;;6.23;27.67;99623.81;110451;1244;71660;-64
2022/03/18 07:41:43;;;;;;;10.00;7.30;;;;;;;6.25;27.10;99623.60;110390;1244;67927;-65
2022/03/18 07:44:13;;;;;;;8.70;6.00;;;;;;;6.38;25.51;99626.64;110372;1244;68594;-65
2022/03/18 07:46:42;;;;;;;7.20;6.00;;;;;;;6.33;25.97;99628.80;110409;1244;59673;-66
2022/03/18 07:49:12;;;;;;;10.00;6.60;;;;;;;7.07;26.46;99636.02;110400;1244;60082;-64
2022/03/18 07:51:41;;;;;;;8.60;6.40;;;;;;;7.11;24.76;99636.63;110256;1244;71685;-62
2022/03/18 07:54:10;;;;;;;9.20;7.30;;;;;;;6.85;25.07;99636.36;110128;1244;67831;-65
2022/03/18 07:56:40;;;;;;;9.00;6.70;;;;;;;6.11;25.20;99632.52;110101;1247;69400;-65
2022/03/18 07:59:09;;;;;;;9.50;6.20;;;;;;;6.37;24.65;99630.97;110422;1245;59671;-64
2022/03/18 08:01:40;;;;;;;9.10;6.90;;;;;;;6.87;25.26;99637.69;110062;1247;59716;-63
2022/03/18 08:04:12;;;;;;;8.70;7.30;;;;;;;6.87;24.35;99631.98;110259;1247;72669;-64
2022/03/18 08:06:43;;;;;;;8.00;5.70;;;;;;;7.15;24.25;99629.77;110128;1245;67824;-63
2022/03/18 08:09:12;;;;;;;7.10;5.50;;;;;;;7.83;24.38;99625.27;110087;1247;69444;-64
2022/03/18 08:11:42;;;;;;;6.70;5.60;;;;;;;8.43;23.63;99630.79;110224;1243;59631;-67
2022/03/18 08:14:11;;;;;;;;;;;;;;;8.67;23.03;99630.09;110335;1244;59695;-64
2022/03/18 08:16:41;;;;;;;7.90;5.50;;;;;;;8.83;21.07;99625.95;110444;1244;71899;-65
2022/03/18 08:19:11;;;;;;;8.20;6.00;;;;;;;8.89;21.03;99631.34;110173;1247;67984;-66
2022/03/18 08:21:41;;;;;;;8.90;6.70;;;;;;;8.66;21.06;99631.14;110410;1244;69439;-65
2022/03/18 08:24:11;;;;;;;9.10;6.50;;;;;;;8.64;21.29;99629.30;110236;1244;60161;-65
2022/03/18 08:26:41;;;;;;;7.00;6.20;;;;;;;8.95;20.72;99634.08;110182;1244;59673;-65
2022/03/18 08:29:10;;;;;;;7.50;5.50;;;;;;;8.86;20.31;99632.29;110153;1246;70821;-66
2022/03/18 08:31:39;;;;;;;9.90;7.10;;;;;;;9.27;20.77;99634.48;110226;1244;67916;-63
2022/03/18 08:34:09;;;;;;;;;;;;;;;9.10;21.33;99630.85;110122;1244;69519;-67
2022/03/18 08:36:38;;;;;;;6.80;5.70;;;;;;;8.98;20.94;99627.73;110270;1244;60097;-66
2022/03/18 08:39:08;;;;;;;8.30;6.40;;;;;;;9.21;20.56;99629.11;110243;1244;59666;-66
2022/03/18 08:41:37;;;;;;;7.80;6.50;;;;;;;9.32;21.11;99628.39;110276;1244;70802;-66
2022/03/18 08:44:07;;;;;;;9.80;6.60;;;;;;;10.50;20.40;99630.39;110306;1244;68620;-63
2022/03/18 08:46:36;;;;;;;9.00;6.40;;;;;;;10.28;18.87;99627.18;110194;1245;69501;-65
2022/03/18 08:49:06;;;;;;;8.90;6.10;;;;;;;9.81;19.03;99625.54;110180;1247;59760;-63
2022/03/18 08:51:35;;;;;;;7.50;6.00;;;;;;;9.45;19.78;99622.58;110117;1244;59652;-64
2022/03/18 08:54:05;;;;;;;9.60;6.80;;;;;;;9.78;19.03;99621.45;110433;1244;72183;-65
2022/03/18 08:56:34;;;;;;;7.20;5.30;;;;;;;9.72;19.43;99622.38;110129;1244;68703;-64
2022/03/18 08:59:06;;;;;;;7.60;6.30;;;;;;;9.94;19.02;99618.45;110238;1244;69380;-64
2022/03/18 09:01:37;;;;;;;7.80;6.00;;;;;;;10.47;18.65;99620.21;110054;1246;59773;-63
2022/03/18 09:04:07;;;;;;;6.30;5.30;;;;;;;10.23;18.23;99619.00;110444;1244;59670;-65
2022/03/18 09:06:36;;;;;;;7.40;5.10;;;;;;;10.58;17.61;99613.69;110464;1244;71063;-64
2022/03/18 09:09:06;;;;;;;7.70;6.20;;;;;;;10.65;17.52;99610.48;110087;1245;68568;-66
2022/03/18 09:11:35;;;;;;;8.20;6.20;;;;;;;10.73;17.86;99610.86;110070;1247;68928;-64
2022/03/18 09:14:04;;;;;;;8.80;6.10;;;;;;;10.79;17.11;99608.30;110141;1247;59753;-61
2022/03/18 09:16:36;;;;;;;9.80;6.70;;;;;;;9.92;17.83;99604.95;110064;1247;59737;-64
2022/03/18 09:19:06;;;;;;;7.80;5.60;;;;;;;9.61;18.34;99604.45;110116;1247;71560;-65
2022/03/18 09:21:35;;;;;;;7.20;5.60;;;;;;;10.71;18.80;99607.46;110137;1247;67223;-64
2022/03/18 09:24:05;;;;;;;8.40;6.00;;;;;;;11.50;17.96;99601.50;110140;1247;69289;-65
2022/03/18 09:26:35;;;;;;;7.10;5.70;;;;;;;12.05;17.27;99603.02;110131;1247;59741;-66
2022/03/18 09:29:04;;;;;;;7.60;5.90;;;;;;;12.01;16.80;99603.70;110074;1248;59747;-65
2022/03/18 09:31:33;;;;;;;8.70;6.30;;;;;;;12.36;16.80;99601.41;110378;1244;71795;-67
2022/03/18 09:34:03;;;;;;;;;;;;;;;12.95;16.55;99601.15;110180;1244;67735;-66
2022/03/18 09:36:32;;;;;;;7.20;5.80;;;;;;;12.83;16.49;99601.36;110147;1246;68658;-66
2022/03/18 09:39:02;;;;;;;9.30;6.60;;;;;;;12.95;15.83;99597.30;110412;1244;60078;-67
2022/03/18 09:41:31;;;;;;;8.30;6.00;;;;;;;13.06;16.18;99598.34;110271;1244;59732;-65
2022/03/18 09:44:01;;;;;;;6.50;5.70;;;;;;;12.75;15.43;99597.21;110347;1244;71413;-64
2022/03/18 09:46:31;;;;;;;6.90;5.50;;;;;;;12.50;16.08;99597.83;110316;1245;68796;-65
2022/03/18 09:49:02;;;;;;;7.10;4.80;;;;;;;12.44;16.00;99595.46;110117;1247;68734;-66
2022/03/18 09:51:32;;;;;;;7.90;6.20;;;;;;;12.29;15.70;99595.27;110408;1244;59694;-66
2022/03/18 09:54:30;;;;;;;5.80;5.20;;;;;;;13.54;15.92;99598.64;110429;1244;59680;-66
2022/03/18 09:57:00;;;;;;;6.90;5.50;;;;;;;13.43;15.69;99595.31;110108;1245;71575;-67
2022/03/18 09:59:30;;;;;;;6.30;5.60;;;;;;;13.98;15.53;99590.62;110461;1244;68697;-66
2022/03/18 10:02:28;;;;;;;10.10;6.10;;;;;;;14.26;15.29;99589.13;110125;1244;68659;-63
2022/03/18 10:05:06;;;;;;;6.20;5.10;;;;;;;14.00;14.76;99585.92;110355;1244;59730;-64
2022/03/18 10:07:35;;;;;;;6.10;5.10;;;;;;;13.56;14.83;99582.73;110365;1244;59722;-64
2022/03/18 10:10:16;;;;;;;6.30;5.00;;;;;;;12.78;14.96;99586.66;110172;1244;71073;-63
2022/03/18 10:12:51;;;;;;;7.00;5.20;;;;;;;13.74;14.62;99583.23;110431;1244;68612;-65
2022/03/18 10:15:24;;;;;;;8.80;5.70;;;;;;;13.28;14.19;99582.73;110430;1244;69860;-67
2022/03/18 10:17:55;;;;;;;6.50;4.90;;;;;;;12.87;15.21;99580.89;110406;1244;59692;-65
2022/03/18 10:20:32;;;;;;;6.20;5.40;;;;;;;13.98;15.08;99583.39;110108;1244;59742;-64
2022/03/18 10:23:05;;;;;;;7.80;6.70;;;;;;;14.58;14.25;99585.27;110314;1244;72261;-65
2022/03/18 10:25:51;;;;;;;7.80;5.70;;;;;;;14.98;14.71;99585.38;110340;1244;68395;-66
2022/03/18 10:28:46;;;;;;;9.20;6.60;;;;;;;15.50;14.34;99582.58;110400;1244;68868;-63
2022/03/18 10:31:21;;;;;;;7.40;6.40;;;;;;;15.12;13.67;99580.52;110070;1247;59701;-63
2022/03/18 10:37:05;;;;;;;6.40;5.70;;;;;;;14.87;14.12;99580.70;110195;1246;71059;-65
2022/03/18 10:39:34;;;;;;;7.20;5.50;;;;;;;15.08;14.44;99576.50;109918;1245;67862;-66
2022/03/18 10:42:09;;;;;;;6.60;5.60;;;;;;;15.18;15.28;99581.10;110404;1244;70155;-65
2022/03/18 10:44:44;;;;;;;7.40;6.40;;;;;;;15.38;14.58;99571.80;110331;1244;59676;-66
2022/03/18 10:47:26;;;;;;;8.70;6.90;;;;;;;16.26;13.62;99566.60;110429;1244;59590;-67
2022/03/18 10:50:19;;;;;;;10.20;8.70;;;;;;;15.48;13.66;99566.15;110084;1247;71558;-66
2022/03/18 10:52:48;;;;;;;10.50;7.90;;;;;;;13.95;14.37;99562.52;110417;1244;68609;-64
2022/03/18 10:55:29;;;;;;;9.80;7.10;;;;;;;13.61;15.07;99563.58;110401;1244;69434;-63
2022/03/18 10:58:10;;;;;;;7.10;6.00;;;;;;;14.13;15.85;99560.20;110096;1245;59690;-65
2022/03/18 11:00:43;;;;;;;7.80;6.40;;;;;;;15.01;14.80;99559.88;110414;1244;59739;-66
2022/03/18 11:03:13;;;;;;;7.60;6.40;;;;;;;16.02;14.58;99558.16;110181;1247;71627;-64
2022/03/18 11:05:51;;;;;;;7.90;7.10;;;;;;;16.29;13.87;99561.25;110076;1247;68546;-65
2022/03/18 11:08:22;;;;;;;7.50;6.00;;;;;;;15.97;13.75;99559.89;110125;1247;69481;-64
2022/03/18 11:13:44;;;;;;;8.40;6.40;;;;;;;15.28;13.51;99564.17;110412;1244;59592;-64
2022/03/18 11:16:21;;;;;;;7.60;6.50;;;;;;;15.13;13.55;99565.16;110177;1244;70850;-67
2022/03/18 11:18:52;;;;;;;8.20;6.00;;;;;;;13.93;13.62;99567.50;110475;1244;68178;-64
2022/03/18 11:21:25;;;;;;;8.00;6.70;;;;;;;14.57;13.60;99569.94;110086;1244;68998;-65
2022/03/18 11:23:55;;;;;;;7.30;5.40;;;;;;;15.10;13.47;99565.55;110431;1244;59741;-65
2022/03/18 11:26:24;;;;;;;7.40;5.90;;;;;;;15.55;12.82;99563.63;110172;1244;59714;-65
2022/03/18 11:29:16;;;;;;;7.80;6.70;;;;;;;15.49;13.18;99558.70;110460;1244;71615;-64
2022/03/18 11:32:15;;;;;;;6.80;5.60;;;;;;;16.19;13.27;99556.11;110341;1245;67783;-66
2022/03/18 11:34:50;;;;;;;9.90;6.80;;;;;;;16.29;12.88;99553.28;110365;1244;68511;-66
2022/03/18 11:37:20;;;;;;;7.60;6.00;;;;;;;15.43;12.69;99555.20;110447;1244;59739;-65
2022/03/18 11:39:50;;;;;;;7.90;6.20;;;;;;;15.70;12.18;99545.70;110465;1244;59612;-65
2022/03/18 11:42:22;;;;;;;6.50;5.80;;;;;;;16.29;12.37;99546.28;110114;1245;71715;-66
2022/03/18 11:44:55;;;;;;;6.50;5.70;;;;;;;15.43;12.75;99545.66;110374;1244;68309;-66
2022/03/18 11:47:28;;;;;;;6.60;5.40;;;;;;;15.74;12.60;99538.79;110411;1244;69500;-65
2022/03/18 11:50:40;;;;;;;8.90;6.00;;;;;;;16.27;12.46;99535.19;110326;1244;59948;-65
2022/03/18 11:53:14;;;;;;;7.10;6.40;;;;;;;16.15;11.87;99535.41;110249;1244;59682;-66
2022/03/18 11:55:45;;;;;;;7.80;6.70;;;;;;;16.46;11.65;99537.35;110114;1247;71207;-66
2022/03/18 11:58:30;;;;;;;7.00;5.60;;;;;;;16.58;11.72;99531.48;110091;1245;68130;-64
2022/03/18 12:01:01;;;;;;;6.80;6.00;;;;;;;16.87;11.48;99532.83;109831;1249;68843;-67
2022/03/18 12:03:36;;;;;;;8.30;6.60;;;;;;;16.72;11.55;99527.42;110117;1247;60134;-64
2022/03/18 12:06:07;;;;;;;7.40;5.80;;;;;;;16.92;11.24;99527.72;110332;1244;59689;-65
2022/03/18 12:08:55;;;;;;;10.10;6.40;;;;;;;16.42;11.56;99528.98;110396;1245;71066;-66
2022/03/18 12:11:33;;;;;;;7.70;5.80;;;;;;;16.76;11.89;99528.94;110390;1244;67816;-68